Time;durP1;ratioP1;P1;durP2;ratioP2;P2;SDS_P1;SDS_P2;PMS_P1;PMS_P2;Temp;Humidity;BMP_temperature;BMP_pressure;BME280_temperature;BME280_humidity;BME280_pressure;Samples;Min_cycle;Max_cycle;Signal;HPM_P1;HPM_P2
2022/01/25 00:15:15;;;;;;;;;;;3.70;99.90;;;;;;5067941;28;19919;-65
2022/01/25 00:31:04;;;;;;;;;;;3.50;99.90;;;;;;5059704;28;20341;-64
2022/01/25 00:33:30;;;;;;;;;;;3.40;99.90;;;;;;5052263;28;19909;-64
2022/01/25 00:35:56;;;;;;;;;;;3.30;99.90;;;;;;5047304;28;20008;-63
2022/01/25 00:38:22;;;;;;;;;;;3.30;99.90;;;;;;5047206;28;20402;-64
2022/01/25 00:40:47;;;;;;;;;;;3.30;99.90;;;;;;5058146;28;19923;-64
2022/01/25 00:43:13;;;;;;;;;;;3.30;99.90;;;;;;5065018;28;20087;-64
2022/01/25 00:45:38;;;;;;;;;;;3.30;99.90;;;;;;5063363;28;20518;-63
2022/01/25 00:48:06;;;;;;;;;;;3.20;99.90;;;;;;5055809;28;19978;-64
2022/01/25 00:50:38;;;;;;;;;;;3.20;99.90;;;;;;5065266;28;19923;-64
2022/01/25 00:55:30;;;;;;;;;;;3.30;99.90;;;;;;5047264;28;20000;-64
2022/01/25 00:57:55;;;;;;;;;;;3.30;99.90;;;;;;5046728;28;19909;-65
2022/01/25 01:00:21;;;;;;;;;;;3.30;99.90;;;;;;5054593;28;20301;-64
2022/01/25 01:02:46;;;;;;;;;;;3.30;99.90;;;;;;5060316;28;19913;-64
2022/01/25 01:05:12;;;;;;;;;;;3.50;99.90;;;;;;5053921;28;19955;-64
2022/01/25 01:07:40;;;;;;;;;;;3.50;99.90;;;;;;5056275;28;19913;-63
2022/01/25 01:10:05;;;;;;;;;;;3.50;99.90;;;;;;5055644;28;19979;-64
2022/01/25 01:31:34;;;;;;;;;;;4.10;99.90;;;;;;5070023;28;19920;-63
2022/01/25 01:34:27;;;;;;;;;;;4.20;99.90;;;;;;5071535;28;19916;-65
2022/01/25 01:42:32;;;;;;;;;;;4.30;99.90;;;;;;5070318;28;20376;-64
2022/01/25 01:47:37;;;;;;;;;;;4.30;99.90;;;;;;5071995;28;20165;-65
2022/01/25 01:50:08;;;;;;;;;;;4.30;99.90;;;;;;5070327;28;19908;-63
2022/01/25 01:52:34;;;;;;;;;;;4.30;99.90;;;;;;5070973;28;19912;-64
2022/01/25 01:54:59;;;;;;;;;;;4.40;99.90;;;;;;5070737;28;20000;-64
2022/01/25 01:57:25;;;;;;;;;;;4.50;99.90;;;;;;5071872;28;20352;-63
2022/01/25 01:59:52;;;;;;;;;;;4.50;99.90;;;;;;5069853;28;20379;-64
2022/01/25 02:02:17;;;;;;;;;;;4.40;99.90;;;;;;5070018;28;19952;-64
2022/01/25 02:04:43;;;;;;;;;;;4.40;99.90;;;;;;5069383;28;19958;-64
2022/01/25 02:07:08;;;;;;;;;;;4.50;99.90;;;;;;5069025;28;19936;-63
2022/01/25 02:09:34;;;;;;;;;;;4.50;99.90;;;;;;5068530;28;20475;-64
2022/01/25 02:11:59;;;;;;;;;;;4.60;99.90;;;;;;5065801;28;20136;-65
2022/01/25 02:14:25;;;;;;;;;;;4.70;99.90;;;;;;5069365;28;19990;-64
2022/01/25 02:24:44;;;;;;;;;;;4.20;99.90;;;;;;5070384;28;19966;-63
2022/01/25 02:27:10;;;;;;;;;;;4.20;99.90;;;;;;5070569;28;19912;-64
2022/01/25 02:29:36;;;;;;;;;;;4.30;99.90;;;;;;5085652;23;19929;-75
2022/01/25 02:32:02;;;;;;;;;;;4.40;99.90;;;;;;5062535;28;19943;-75
2022/01/25 02:34:27;;;;;;;;;;;4.40;99.90;;;;;;5045334;28;20113;-75
2022/01/25 02:37:04;;;;;;;;;;;4.40;99.90;;;;;;5073339;28;19928;-75
2022/01/25 02:39:29;;;;;;;;;;;4.40;99.90;;;;;;5049310;28;20610;-76
2022/01/25 02:41:55;;;;;;;;;;;4.40;99.90;;;;;;5043924;28;20018;-78
2022/01/25 02:44:26;;;;;;;;;;;4.60;99.90;;;;;;5055072;28;19913;-74
2022/01/25 02:49:18;;;;;;;;;;;4.70;99.90;;;;;;5055149;28;19915;-77
2022/01/25 02:51:46;;;;;;;;;;;4.70;99.90;;;;;;5056840;28;20007;-77
2022/01/25 02:54:13;;;;;;;;;;;4.70;99.90;;;;;;5051902;28;19909;-76
2022/01/25 02:56:40;;;;;;;;;;;4.80;99.90;;;;;;5046332;28;20272;-75
2022/01/25 02:59:06;;;;;;;;;;;4.70;99.90;;;;;;5056925;28;19917;-77
2022/01/25 03:01:32;;;;;;;;;;;4.60;99.90;;;;;;5062261;28;19923;-74
2022/01/25 03:03:58;;;;;;;;;;;4.50;99.90;;;;;;5044672;28;19913;-76
2022/01/25 03:06:24;;;;;;;;;;;4.50;99.90;;;;;;5059996;28;20007;-76
2022/01/25 03:08:50;;;;;;;;;;;4.60;99.90;;;;;;5044878;28;19955;-76
2022/01/25 03:11:17;;;;;;;;;;;4.60;99.90;;;;;;5040776;28;19927;-76
2022/01/25 03:13:52;;;;;;;;;;;4.70;99.90;;;;;;5060517;28;19909;-77
2022/01/25 03:16:33;;;;;;;;;;;4.70;99.90;;;;;;5058948;28;19961;-77
2022/01/25 03:19:02;;;;;;;;;;;4.60;99.90;;;;;;5058794;28;19916;-75
2022/01/25 03:23:54;;;;;;;;;;;4.60;99.90;;;;;;5057252;28;19974;-77
2022/01/25 03:26:20;;;;;;;;;;;4.70;99.90;;;;;;5051224;28;19924;-75
2022/01/25 03:28:46;;;;;;;;;;;4.80;99.90;;;;;;5067453;28;19935;-76
2022/01/25 03:31:12;;;;;;;;;;;4.90;99.90;;;;;;5060153;28;19959;-76
2022/01/25 03:33:38;;;;;;;;;;;4.90;99.90;;;;;;5057918;28;19951;-75
2022/01/25 03:36:04;;;;;;;;;;;4.90;99.90;;;;;;5056937;28;19913;-76
2022/01/25 03:38:30;;;;;;;;;;;4.90;99.90;;;;;;5056684;28;19912;-76
2022/01/25 03:40:55;;;;;;;;;;;5.00;99.90;;;;;;5038830;28;19972;-76
2022/01/25 03:43:21;;;;;;;;;;;4.90;99.90;;;;;;5059208;28;19958;-76
2022/01/25 03:46:00;;;;;;;;;;;5.00;99.90;;;;;;5061097;28;19909;-75
2022/01/25 03:50:51;;;;;;;;;;;4.70;99.90;;;;;;5056817;28;19909;-75
2022/01/25 03:53:18;;;;;;;;;;;4.70;99.90;;;;;;5055236;28;19987;-76
2022/01/25 03:55:44;;;;;;;;;;;4.60;99.90;;;;;;5057282;28;20610;-75
2022/01/25 03:58:09;;;;;;;;;;;4.50;99.90;;;;;;5056903;28;19935;-77
2022/01/25 04:00:36;;;;;;;;;;;4.50;99.90;;;;;;5040207;28;19936;-77
2022/01/25 04:05:48;;;;;;;;;;;4.70;99.90;;;;;;5063091;28;19972;-76
2022/01/25 04:08:14;;;;;;;;;;;4.90;99.90;;;;;;5046851;28;19916;-76
2022/01/25 04:10:39;;;;;;;;;;;4.80;99.90;;;;;;5064358;28;19919;-78
2022/01/25 04:13:05;;;;;;;;;;;4.80;99.90;;;;;;5061686;28;20003;-76
2022/01/25 04:15:31;;;;;;;;;;;4.90;99.90;;;;;;5042076;28;19916;-75
2022/01/25 04:18:22;;;;;;;;;;;4.90;99.90;;;;;;5055630;28;19909;-75
2022/01/25 04:21:01;;;;;;;;;;;5.00;99.90;;;;;;5059248;28;19931;-75
2022/01/25 04:26:11;;;;;;;;;;;5.10;99.90;;;;;;5075868;28;19908;-78
2022/01/25 04:28:36;;;;;;;;;;;5.10;99.90;;;;;;5074038;28;19924;-78
2022/01/25 04:31:02;;;;;;;;;;;5.10;99.90;;;;;;5067433;28;19959;-73
2022/01/25 04:33:38;;;;;;;;;;;5.00;99.90;;;;;;5052543;28;19913;-76
2022/01/25 04:36:37;;;;;;;;;;;4.90;99.90;;;;;;5064814;28;19917;-74
2022/01/25 04:48:54;;;;;;;;;;;5.00;99.90;;;;;;5070793;28;19955;-75
2022/01/25 04:50:25;;;;;;;;;;;4.70;99.90;;;;;;5068934;28;19981;-76
2022/01/25 04:53:01;;;;;;;;;;;4.70;99.90;;;;;;5066016;28;19926;-75
2022/01/25 04:55:44;;;;;;;;;;;4.80;99.90;;;;;;5062050;28;19897;-76
2022/01/25 04:58:17;;;;;;;;;;;4.80;99.90;;;;;;5067008;28;19932;-77
2022/01/25 05:00:45;;;;;;;;;;;4.90;99.90;;;;;;5074332;28;19907;-77
2022/01/25 05:03:12;;;;;;;;;;;4.80;99.90;;;;;;5073102;28;19933;-75
2022/01/25 05:06:08;;;;;;;;;;;4.80;99.90;;;;;;5059680;28;19913;-78
2022/01/25 05:08:39;;;;;;;;;;;4.90;99.90;;;;;;5048830;28;19913;-77
2022/01/25 05:11:10;;;;;;;;;;;4.90;99.90;;;;;;5057226;28;19970;-76
2022/01/25 05:13:50;;;;;;;;;;;4.90;99.90;;;;;;5054739;28;19948;-74
2022/01/25 05:16:33;;;;;;;;;;;4.90;99.90;;;;;;5039595;28;19925;-77
2022/01/25 05:24:14;;;;;;;;;;;4.80;99.90;;;;;;5066506;28;20621;-75
2022/01/25 05:26:39;;;;;;;;;;;4.70;99.90;;;;;;5038034;28;19921;-74
2022/01/25 05:29:05;;;;;;;;;;;4.70;99.90;;;;;;5054498;28;20290;-74
2022/01/25 05:31:30;;;;;;;;;;;4.80;99.90;;;;;;5065697;28;19913;-76
2022/01/25 05:33:55;;;;;;;;;;;4.70;99.90;;;;;;5058923;28;19920;-76
2022/01/25 05:36:21;;;;;;;;;;;4.70;99.90;;;;;;5060407;28;20235;-75
2022/01/25 05:38:47;;;;;;;;;;;4.70;99.90;;;;;;5056131;28;19920;-74
2022/01/25 05:41:13;;;;;;;;;;;4.70;99.90;;;;;;5037159;28;20011;-75
2022/01/25 05:46:34;;;;;;;;;;;4.90;99.90;;;;;;5057066;28;19919;-75
2022/01/25 05:48:59;;;;;;;;;;;4.80;99.90;;;;;;5055179;28;20060;-75
2022/01/25 05:51:25;;;;;;;;;;;4.90;99.90;;;;;;5050883;28;19944;-76
2022/01/25 05:53:51;;;;;;;;;;;4.80;99.90;;;;;;5059502;28;19944;-77
2022/01/25 05:56:16;;;;;;;;;;;4.60;99.90;;;;;;5057407;28;20041;-75
2022/01/25 05:58:42;;;;;;;;;;;4.50;99.90;;;;;;5060359;28;19942;-76
2022/01/25 06:01:07;;;;;;;;;;;4.60;99.90;;;;;;5062788;28;19914;-75
2022/01/25 06:03:33;;;;;;;;;;;4.80;99.90;;;;;;5064694;28;19919;-74
2022/01/25 06:05:58;;;;;;;;;;;4.80;99.90;;;;;;5064382;28;19923;-78
2022/01/25 06:08:24;;;;;;;;;;;4.80;99.90;;;;;;5051972;28;19920;-76
2022/01/25 06:10:49;;;;;;;;;;;4.70;99.90;;;;;;5036022;28;19987;-74
2022/01/25 06:13:15;;;;;;;;;;;4.60;99.90;;;;;;5050761;28;20046;-75
2022/01/25 06:15:41;;;;;;;;;;;4.50;99.90;;;;;;5055247;28;19920;-76
2022/01/25 06:18:06;;;;;;;;;;;4.50;99.90;;;;;;5045674;28;19972;-76
2022/01/25 06:20:33;;;;;;;;;;;4.60;99.90;;;;;;5031227;28;19913;-77
2022/01/25 06:22:59;;;;;;;;;;;4.60;99.90;;;;;;5043257;28;19921;-78
2022/01/25 06:25:24;;;;;;;;;;;4.60;99.90;;;;;;5044241;28;19920;-75
2022/01/25 06:27:50;;;;;;;;;;;4.70;99.90;;;;;;5046975;28;19912;-75
2022/01/25 06:30:17;;;;;;;;;;;4.70;99.90;;;;;;5047125;28;19925;-76
2022/01/25 06:32:44;;;;;;;;;;;4.50;99.90;;;;;;5040898;28;19921;-77
2022/01/25 06:35:10;;;;;;;;;;;4.60;99.90;;;;;;5048791;28;20379;-76
2022/01/25 06:37:35;;;;;;;;;;;4.40;99.90;;;;;;5037214;28;19946;-76
2022/01/25 06:40:01;;;;;;;;;;;4.50;99.90;;;;;;5055029;28;19923;-78
2022/01/25 06:42:29;;;;;;;;;;;4.60;99.90;;;;;;5056223;28;19948;-75
2022/01/25 06:44:59;;;;;;;;;;;4.50;99.90;;;;;;5043980;28;19905;-76
2022/01/25 06:47:25;;;;;;;;;;;4.60;99.90;;;;;;5051432;28;19921;-74
2022/01/25 06:49:50;;;;;;;;;;;4.70;99.90;;;;;;5064984;28;19996;-74
2022/01/25 06:52:16;;;;;;;;;;;4.60;99.90;;;;;;5060875;28;20014;-77
2022/01/25 06:54:41;;;;;;;;;;;4.50;99.90;;;;;;5055961;28;19995;-76
2022/01/25 06:57:07;;;;;;;;;;;4.40;99.90;;;;;;5053578;28;19995;-78
2022/01/25 06:59:33;;;;;;;;;;;4.30;99.90;;;;;;5048514;28;19905;-78
2022/01/25 07:01:58;;;;;;;;;;;4.40;99.90;;;;;;5054882;28;19913;-77
2022/01/25 07:04:24;;;;;;;;;;;4.40;99.90;;;;;;5055645;28;19905;-77
2022/01/25 07:06:49;;;;;;;;;;;4.40;99.90;;;;;;5063978;28;19943;-79
2022/01/25 07:09:15;;;;;;;;;;;4.40;99.90;;;;;;5021085;28;19909;-77
2022/01/25 07:11:40;;;;;;;;;;;4.50;99.90;;;;;;5058207;28;19904;-79
2022/01/25 07:14:06;;;;;;;;;;;4.50;99.90;;;;;;5053285;28;19905;-78
2022/01/25 07:16:31;;;;;;;;;;;4.40;99.90;;;;;;5055927;28;19909;-79
2022/01/25 07:18:57;;;;;;;;;;;4.50;99.90;;;;;;5053591;28;19911;-79
2022/01/25 07:21:22;;;;;;;;;;;4.50;99.90;;;;;;5061802;28;19905;-78
2022/01/25 07:23:48;;;;;;;;;;;4.60;99.90;;;;;;5055490;28;19904;-77
2022/01/25 07:26:13;;;;;;;;;;;4.70;99.90;;;;;;5052505;28;19905;-78
2022/01/25 07:28:39;;;;;;;;;;;4.70;99.90;;;;;;5044819;28;19965;-78
2022/01/25 07:31:05;;;;;;;;;;;4.80;99.90;;;;;;5055258;28;19988;-77
2022/01/25 07:33:30;;;;;;;;;;;4.70;99.90;;;;;;5048742;28;19909;-78
2022/01/25 07:35:56;;;;;;;;;;;4.80;99.90;;;;;;5028931;28;19910;-77
2022/01/25 07:38:22;;;;;;;;;;;4.90;99.90;;;;;;5073859;28;19919;-77
2022/01/25 07:40:47;;;;;;;;;;;4.90;99.90;;;;;;5071947;28;19968;-79
2022/01/25 07:43:13;;;;;;;;;;;4.90;99.90;;;;;;5065648;28;19909;-78
2022/01/25 07:45:39;;;;;;;;;;;4.70;99.90;;;;;;5065791;28;19962;-77
2022/01/25 07:48:05;;;;;;;;;;;4.60;99.90;;;;;;5067943;28;19905;-81
2022/01/25 07:50:31;;;;;;;;;;;4.70;99.90;;;;;;5061699;28;19908;-78
2022/01/25 07:52:57;;;;;;;;;;;4.80;99.90;;;;;;5057782;28;20247;-79
2022/01/25 07:55:22;;;;;;;;;;;4.90;99.90;;;;;;5059078;28;19905;-79
2022/01/25 07:57:47;;;;;;;;;;;4.80;99.90;;;;;;5059678;28;19958;-79
2022/01/25 08:00:13;;;;;;;;;;;4.90;99.90;;;;;;5054860;28;19939;-79
2022/01/25 08:02:44;;;;;;;;;;;5.00;99.90;;;;;;5031128;28;19952;-77
2022/01/25 08:05:12;;;;;;;;;;;5.00;99.90;;;;;;5053412;28;20314;-77
2022/01/25 08:07:37;;;;;;;;;;;5.00;99.90;;;;;;5055520;28;19959;-79
2022/01/25 08:10:03;;;;;;;;;;;5.10;99.90;;;;;;5041738;28;19912;-80
2022/01/25 08:12:28;;;;;;;;;;;5.10;99.90;;;;;;5039260;28;19904;-78
2022/01/25 08:14:57;;;;;;;;;;;4.80;99.90;;;;;;5040192;28;19909;-77
2022/01/25 08:17:22;;;;;;;;;;;4.70;99.90;;;;;;5043620;28;20353;-75
2022/01/25 08:19:48;;;;;;;;;;;4.90;99.90;;;;;;5061507;28;19900;-78
2022/01/25 08:22:13;;;;;;;;;;;5.00;99.90;;;;;;5050752;28;20051;-76
2022/01/25 08:24:39;;;;;;;;;;;5.10;99.90;;;;;;5045838;28;19919;-78
2022/01/25 08:27:05;;;;;;;;;;;5.20;99.90;;;;;;5043323;28;19965;-76
2022/01/25 08:29:30;;;;;;;;;;;5.20;99.90;;;;;;5046821;28;20030;-80
2022/01/25 08:31:56;;;;;;;;;;;5.10;99.90;;;;;;5055036;28;19909;-78
2022/01/25 08:34:22;;;;;;;;;;;5.00;99.90;;;;;;5054173;28;19912;-78
2022/01/25 08:36:47;;;;;;;;;;;4.70;99.90;;;;;;5053284;28;19920;-76
2022/01/25 08:39:12;;;;;;;;;;;4.70;99.90;;;;;;5065818;28;19916;-77
2022/01/25 08:41:39;;;;;;;;;;;4.80;99.90;;;;;;5051370;28;19999;-78
2022/01/25 08:44:05;;;;;;;;;;;4.80;99.90;;;;;;5053515;28;19976;-77
2022/01/25 08:46:31;;;;;;;;;;;4.70;99.90;;;;;;5060948;28;19897;-76
2022/01/25 08:48:57;;;;;;;;;;;4.60;99.90;;;;;;5044489;28;19952;-75
2022/01/25 08:51:22;;;;;;;;;;;4.60;99.90;;;;;;5059120;28;19916;-78
2022/01/25 08:53:48;;;;;;;;;;;4.50;99.90;;;;;;5038476;28;19916;-77
2022/01/25 08:56:14;;;;;;;;;;;4.50;99.90;;;;;;5063717;28;19959;-76
2022/01/25 08:58:40;;;;;;;;;;;4.50;99.90;;;;;;5047867;28;19949;-77
2022/01/25 09:01:06;;;;;;;;;;;4.60;99.90;;;;;;5036291;28;19913;-77
2022/01/25 09:03:31;;;;;;;;;;;4.80;99.90;;;;;;5056346;28;19925;-76
2022/01/25 09:05:57;;;;;;;;;;;4.90;99.90;;;;;;5039496;28;19983;-75
2022/01/25 09:08:24;;;;;;;;;;;4.80;99.90;;;;;;5059607;28;20448;-77
2022/01/25 09:10:52;;;;;;;;;;;4.70;99.90;;;;;;5056678;28;20084;-75
2022/01/25 09:13:18;;;;;;;;;;;4.80;99.90;;;;;;5054368;28;20416;-76
2022/01/25 09:15:44;;;;;;;;;;;4.80;99.90;;;;;;5053259;28;19909;-77
2022/01/25 09:18:09;;;;;;;;;;;5.00;99.90;;;;;;5054678;28;19935;-75
2022/01/25 09:20:35;;;;;;;;;;;5.00;99.90;;;;;;5054107;28;19912;-78
2022/01/25 09:23:00;;;;;;;;;;;5.00;99.90;;;;;;5055057;28;19955;-78
2022/01/25 09:25:26;;;;;;;;;;;5.00;99.90;;;;;;5065294;28;19913;-79
2022/01/25 09:27:51;;;;;;;;;;;5.10;99.90;;;;;;5049734;28;19947;-76
2022/01/25 09:30:17;;;;;;;;;;;4.90;99.90;;;;;;5045591;28;19924;-78
2022/01/25 09:32:42;;;;;;;;;;;4.90;99.90;;;;;;5044146;28;19937;-78
2022/01/25 09:35:08;;;;;;;;;;;4.90;99.90;;;;;;5066544;28;19916;-77
2022/01/25 09:37:33;;;;;;;;;;;4.90;99.90;;;;;;5064926;28;19913;-77
2022/01/25 09:39:59;;;;;;;;;;;4.80;99.90;;;;;;5056005;28;19978;-75
2022/01/25 09:42:28;;;;;;;;;;;4.80;99.90;;;;;;5048146;28;19913;-77
2022/01/25 09:44:54;;;;;;;;;;;4.80;99.90;;;;;;5075942;28;19908;-77
2022/01/25 09:47:19;;;;;;;;;;;4.90;99.90;;;;;;5064882;28;19913;-77
2022/01/25 09:49:45;;;;;;;;;;;4.70;99.90;;;;;;5064982;28;19908;-79
2022/01/25 09:52:11;;;;;;;;;;;4.70;99.90;;;;;;5044141;28;20314;-77
2022/01/25 09:54:36;;;;;;;;;;;4.80;99.90;;;;;;5044905;28;20012;-76
2022/01/25 09:57:03;;;;;;;;;;;4.80;99.90;;;;;;5061096;28;20010;-78
2022/01/25 09:59:28;;;;;;;;;;;4.90;99.90;;;;;;5069977;28;20302;-76
2022/01/25 10:01:54;;;;;;;;;;;5.00;99.90;;;;;;5058332;28;19939;-77
2022/01/25 10:04:29;;;;;;;;;;;5.00;99.90;;;;;;5063913;28;19920;-78
2022/01/25 10:06:54;;;;;;;;;;;4.90;99.90;;;;;;5060079;28;19909;-76
2022/01/25 10:09:20;;;;;;;;;;;4.80;99.90;;;;;;5049409;28;19928;-77
2022/01/25 10:11:47;;;;;;;;;;;4.90;99.90;;;;;;5056780;28;19948;-77
2022/01/25 10:14:13;;;;;;;;;;;4.90;99.90;;;;;;5048547;28;19914;-76
2022/01/25 10:16:39;;;;;;;;;;;5.00;99.90;;;;;;5049727;28;19924;-78
2022/01/25 10:19:05;;;;;;;;;;;4.90;99.90;;;;;;5031151;28;20007;-76
2022/01/25 10:21:35;;;;;;;;;;;4.70;99.90;;;;;;5049728;28;19943;-77
2022/01/25 10:24:06;;;;;;;;;;;4.70;99.90;;;;;;5051663;28;20244;-78
2022/01/25 10:26:39;;;;;;;;;;;4.70;99.90;;;;;;5054110;28;19955;-77
2022/01/25 10:29:05;;;;;;;;;;;4.70;99.90;;;;;;5059944;28;19917;-78
2022/01/25 10:32:04;;;;;;;;;;;4.70;99.90;;;;;;5048503;28;20265;-78
2022/01/25 10:34:36;;;;;;;;;;;4.70;99.90;;;;;;5017945;28;19931;-76
2022/01/25 10:37:06;;;;;;;;;;;4.70;99.90;;;;;;5058818;28;19913;-77
2022/01/25 10:39:33;;;;;;;;;;;4.80;99.90;;;;;;5041789;28;20417;-76
2022/01/25 10:42:03;;;;;;;;;;;4.90;99.90;;;;;;5057629;28;19909;-76
2022/01/25 10:44:44;;;;;;;;;;;5.00;99.90;;;;;;5041051;28;19962;-75
2022/01/25 10:47:09;;;;;;;;;;;4.90;99.90;;;;;;5058923;28;20275;-76
2022/01/25 10:49:42;;;;;;;;;;;5.10;99.90;;;;;;5067824;28;19935;-76
2022/01/25 10:52:07;;;;;;;;;;;5.00;99.90;;;;;;5060816;28;19949;-76
2022/01/25 10:54:38;;;;;;;;;;;5.00;99.90;;;;;;5057068;28;19916;-76
2022/01/25 10:57:03;;;;;;;;;;;4.90;99.90;;;;;;5040054;28;20031;-76
2022/01/25 10:59:32;;;;;;;;;;;4.70;99.90;;;;;;5040243;28;19916;-75
2022/01/25 11:02:04;;;;;;;;;;;4.80;99.90;;;;;;5058110;28;19909;-75
2022/01/25 11:04:35;;;;;;;;;;;4.90;99.90;;;;;;5056231;28;20182;-75
2022/01/25 11:07:05;;;;;;;;;;;5.10;99.90;;;;;;5040470;28;20015;-76
2022/01/25 11:09:36;;;;;;;;;;;5.10;99.90;;;;;;5042173;28;19920;-76
2022/01/25 11:12:03;;;;;;;;;;;4.80;99.90;;;;;;5040166;28;19913;-76
2022/01/25 11:17:13;;;;;;;;;;;4.70;99.90;;;;;;5056535;28;19923;-76
2022/01/25 11:19:38;;;;;;;;;;;4.60;99.90;;;;;;5058379;28;19963;-78
2022/01/25 11:22:04;;;;;;;;;;;4.60;99.90;;;;;;5043946;28;19920;-78
2022/01/25 11:24:32;;;;;;;;;;;4.40;99.90;;;;;;5063122;28;19956;-77
2022/01/25 11:27:00;;;;;;;;;;;4.40;99.90;;;;;;5063427;28;19916;-77
2022/01/25 11:29:26;;;;;;;;;;;4.50;99.90;;;;;;5058515;28;20019;-76
2022/01/25 11:31:54;;;;;;;;;;;4.40;99.90;;;;;;5057141;28;19948;-76
2022/01/25 11:34:22;;;;;;;;;;;4.40;99.90;;;;;;5041668;28;19913;-76
2022/01/25 11:36:51;;;;;;;;;;;4.30;99.90;;;;;;5039672;28;19913;-77
2022/01/25 11:39:19;;;;;;;;;;;4.30;99.90;;;;;;5039668;28;19930;-74
2022/01/25 11:41:45;;;;;;;;;;;4.40;99.90;;;;;;5057570;28;19931;-77
2022/01/25 11:44:12;;;;;;;;;;;4.60;99.90;;;;;;5058695;28;20382;-75
2022/01/25 11:46:42;;;;;;;;;;;4.60;99.90;;;;;;5038287;28;19999;-75
2022/01/25 11:49:25;;;;;;;;;;;4.60;99.90;;;;;;5057273;28;19915;-77
2022/01/25 11:52:06;;;;;;;;;;;4.60;99.90;;;;;;5054194;28;19944;-78
2022/01/25 11:54:34;;;;;;;;;;;4.60;99.90;;;;;;5056219;28;19995;-76
2022/01/25 11:57:09;;;;;;;;;;;4.70;99.90;;;;;;5054315;28;20357;-76
2022/01/25 11:59:35;;;;;;;;;;;4.70;99.90;;;;;;5059245;28;19931;-76
2022/01/25 12:02:00;;;;;;;;;;;4.60;99.90;;;;;;5050973;28;20141;-75
2022/01/25 12:04:29;;;;;;;;;;;4.50;99.90;;;;;;5064973;28;19913;-74
2022/01/25 12:07:01;;;;;;;;;;;4.40;99.90;;;;;;5044288;28;19909;-75
2022/01/25 12:09:43;;;;;;;;;;;4.40;99.90;;;;;;5061905;28;19932;-76
2022/01/25 12:12:09;;;;;;;;;;;4.40;99.90;;;;;;5061995;28;19924;-78
2022/01/25 12:14:49;;;;;;;;;;;4.40;99.90;;;;;;5060697;28;19909;-76
2022/01/25 12:17:19;;;;;;;;;;;4.30;99.90;;;;;;5062703;28;19912;-75
2022/01/25 12:19:48;;;;;;;;;;;4.40;99.90;;;;;;5064970;28;19913;-74
2022/01/25 12:25:05;;;;;;;;;;;4.50;99.90;;;;;;5063431;28;19913;-78
2022/01/25 12:27:36;;;;;;;;;;;4.60;99.90;;;;;;5065579;28;19940;-77
2022/01/25 12:30:12;;;;;;;;;;;4.60;99.90;;;;;;5071848;28;19972;-77
2022/01/25 12:33:00;;;;;;;;;;;4.50;99.90;;;;;;5074908;28;19908;-77
2022/01/25 12:35:36;;;;;;;;;;;4.50;99.90;;;;;;5056829;28;19927;-77
2022/01/25 12:38:04;;;;;;;;;;;4.60;99.90;;;;;;5075644;28;19909;-77
2022/01/25 12:40:32;;;;;;;;;;;4.70;99.90;;;;;;5074175;28;19940;-77
2022/01/25 12:43:00;;;;;;;;;;;4.80;99.90;;;;;;5074366;28;19920;-76
2022/01/25 12:45:28;;;;;;;;;;;4.70;99.90;;;;;;5069732;28;19912;-76
2022/01/25 12:47:55;;;;;;;;;;;4.70;99.90;;;;;;5064167;28;19909;-75
2022/01/25 12:50:21;;;;;;;;;;;4.70;99.90;;;;;;5063536;28;19913;-77
2022/01/25 12:52:47;;;;;;;;;;;4.70;99.90;;;;;;5061942;28;19909;-75
2022/01/25 12:55:13;;;;;;;;;;;4.70;99.90;;;;;;5043400;28;19908;-76
2022/01/25 12:57:48;;;;;;;;;;;4.70;99.90;;;;;;5042973;28;20048;-77
2022/01/25 13:00:14;;;;;;;;;;;4.60;99.90;;;;;;5063657;28;19912;-77
2022/01/25 13:02:40;;;;;;;;;;;4.70;99.90;;;;;;5068229;28;19967;-77
2022/01/25 13:05:20;;;;;;;;;;;4.70;99.90;;;;;;5059539;28;19956;-76
2022/01/25 13:07:46;;;;;;;;;;;4.60;99.90;;;;;;5051486;28;19955;-75
2022/01/25 13:10:22;;;;;;;;;;;4.70;99.90;;;;;;5039445;28;19913;-77
2022/01/25 13:12:56;;;;;;;;;;;4.60;99.90;;;;;;5043542;28;19909;-76
2022/01/25 13:15:38;;;;;;;;;;;4.60;99.90;;;;;;5060702;28;19912;-74
2022/01/25 13:18:11;;;;;;;;;;;4.60;99.90;;;;;;5074230;28;19936;-75
2022/01/25 13:20:37;;;;;;;;;;;4.80;99.90;;;;;;5066098;28;19956;-75
2022/01/25 13:23:03;;;;;;;;;;;4.70;99.90;;;;;;5049530;28;19919;-76
2022/01/25 13:25:42;;;;;;;;;;;4.60;99.90;;;;;;5045161;28;19913;-75
2022/01/25 13:28:12;;;;;;;;;;;4.50;99.90;;;;;;5047200;28;20000;-76
2022/01/25 13:30:49;;;;;;;;;;;4.60;99.90;;;;;;5053500;28;19917;-74
2022/01/25 13:33:19;;;;;;;;;;;4.70;99.90;;;;;;5036247;28;19948;-75
2022/01/25 13:35:51;;;;;;;;;;;4.80;99.90;;;;;;5047865;28;19921;-76
2022/01/25 13:38:18;;;;;;;;;;;4.80;99.90;;;;;;5055232;28;19996;-76
2022/01/25 13:40:53;;;;;;;;;;;4.70;99.90;;;;;;5060547;28;19966;-75
2022/01/25 13:45:50;;;;;;;;;;;4.80;99.90;;;;;;5047858;28;19917;-75
2022/01/25 13:48:15;;;;;;;;;;;4.80;99.90;;;;;;5036742;28;19920;-74
2022/01/25 13:50:42;;;;;;;;;;;4.80;99.90;;;;;;5044169;28;19917;-76
2022/01/25 13:53:08;;;;;;;;;;;4.70;99.90;;;;;;5046284;28;20585;-75
2022/01/25 13:55:34;;;;;;;;;;;4.80;99.90;;;;;;5024044;28;19919;-76
2022/01/25 13:57:59;;;;;;;;;;;4.70;99.90;;;;;;5044301;28;20387;-75
2022/01/25 14:00:25;;;;;;;;;;;4.80;99.90;;;;;;5040125;28;19924;-75
2022/01/25 14:02:53;;;;;;;;;;;4.90;99.90;;;;;;5048935;28;19968;-76
2022/01/25 14:05:19;;;;;;;;;;;4.90;99.90;;;;;;5038293;28;19913;-75
2022/01/25 14:07:54;;;;;;;;;;;4.70;99.90;;;;;;5044018;28;20011;-74
2022/01/25 14:10:23;;;;;;;;;;;4.60;99.90;;;;;;5061224;28;19913;-75
2022/01/25 14:23:48;;;;;;;;;;;4.70;99.90;;;;;;5039925;28;19956;-74
2022/01/25 14:26:14;;;;;;;;;;;4.70;99.90;;;;;;5040999;28;19971;-76
2022/01/25 14:28:43;;;;;;;;;;;4.70;99.90;;;;;;5040702;28;19979;-75
2022/01/25 14:31:16;;;;;;;;;;;4.70;99.90;;;;;;5031655;28;19974;-74
2022/01/25 14:33:47;;;;;;;;;;;4.70;99.90;;;;;;5041742;28;19919;-78
2022/01/25 14:36:13;;;;;;;;;;;4.70;99.90;;;;;;5044026;28;20516;-78
2022/01/25 14:38:40;;;;;;;;;;;4.60;99.90;;;;;;5020962;28;20550;-73
2022/01/25 14:41:06;;;;;;;;;;;4.60;99.90;;;;;;5042032;28;19958;-79
2022/01/25 14:43:32;;;;;;;;;;;4.60;99.90;;;;;;5069860;28;19944;-75
2022/01/25 14:46:09;;;;;;;;;;;4.70;99.90;;;;;;5071888;28;19919;-75
2022/01/25 14:48:36;;;;;;;;;;;4.70;99.90;;;;;;5063451;28;19919;-76
2022/01/25 14:51:06;;;;;;;;;;;4.90;99.90;;;;;;5060470;28;19963;-77
2022/01/25 14:53:32;;;;;;;;;;;4.90;99.90;;;;;;5041390;28;19940;-73
2022/01/25 14:56:00;;;;;;;;;;;4.80;99.90;;;;;;5055575;28;19916;-76
2022/01/25 15:01:30;;;;;;;;;;;5.00;99.90;;;;;;4991711;28;20005;-75
2022/01/25 15:03:57;;;;;;;;;;;4.90;99.90;;;;;;4995250;28;20509;-74
2022/01/25 15:06:23;;;;;;;;;;;4.70;99.90;;;;;;5022880;28;19909;-75
2022/01/25 15:08:52;;;;;;;;;;;4.70;99.90;;;;;;5055821;28;19916;-76
2022/01/25 15:11:19;;;;;;;;;;;4.60;99.90;;;;;;5047531;28;19912;-74
2022/01/25 15:13:44;;;;;;;;;;;4.50;99.90;;;;;;5055663;28;19912;-77
2022/01/25 15:16:10;;;;;;;;;;;4.50;99.90;;;;;;5044601;28;19917;-75
2022/01/25 15:18:38;;;;;;;;;;;4.50;99.90;;;;;;5051547;28;20465;-74
2022/01/25 15:21:04;;;;;;;;;;;4.60;99.90;;;;;;5050570;28;19905;-77
2022/01/25 15:23:32;;;;;;;;;;;4.60;99.90;;;;;;5031817;28;19934;-77
2022/01/25 15:26:00;;;;;;;;;;;4.50;99.90;;;;;;5041684;28;19913;-75
2022/01/25 15:28:36;;;;;;;;;;;4.60;99.90;;;;;;5037461;28;19913;-75
2022/01/25 15:31:02;;;;;;;;;;;4.60;99.90;;;;;;5049560;28;19917;-78
2022/01/25 15:33:27;;;;;;;;;;;4.60;99.90;;;;;;5045919;28;19980;-75
2022/01/25 15:35:53;;;;;;;;;;;4.50;99.90;;;;;;5034743;28;19954;-74
2022/01/25 15:38:18;;;;;;;;;;;4.50;99.90;;;;;;5042366;28;19912;-75
2022/01/25 15:40:44;;;;;;;;;;;4.40;99.90;;;;;;5074388;28;19916;-77
2022/01/25 15:43:10;;;;;;;;;;;4.50;99.90;;;;;;5072587;28;19908;-76
2022/01/25 15:48:21;;;;;;;;;;;4.30;99.90;;;;;;5034920;28;19948;-76
2022/01/25 15:50:46;;;;;;;;;;;4.40;99.90;;;;;;5043819;28;20138;-76
2022/01/25 15:53:12;;;;;;;;;;;4.60;99.90;;;;;;5038983;28;19998;-76
2022/01/25 15:55:37;;;;;;;;;;;4.80;99.90;;;;;;5029917;28;19912;-76
2022/01/25 15:58:03;;;;;;;;;;;4.90;99.90;;;;;;5042196;28;19912;-75
2022/01/25 16:00:28;;;;;;;;;;;4.80;99.90;;;;;;5047071;28;20465;-76
2022/01/25 16:02:53;;;;;;;;;;;4.50;99.90;;;;;;5051903;28;20278;-76
2022/01/25 16:05:21;;;;;;;;;;;4.40;99.90;;;;;;5050708;28;19913;-74
2022/01/25 16:07:48;;;;;;;;;;;4.40;99.90;;;;;;5049727;28;19976;-76
2022/01/25 16:10:14;;;;;;;;;;;4.30;99.90;;;;;;5050070;28;20023;-75
2022/01/25 16:12:40;;;;;;;;;;;4.30;99.90;;;;;;5054417;28;19909;-76
2022/01/25 16:15:06;;;;;;;;;;;4.30;99.90;;;;;;5048183;28;19916;-76
2022/01/25 16:17:31;;;;;;;;;;;4.30;99.90;;;;;;5069491;28;20294;-78
2022/01/25 16:19:56;;;;;;;;;;;4.30;99.90;;;;;;5074864;28;19909;-75
2022/01/25 16:22:22;;;;;;;;;;;4.20;99.90;;;;;;5073611;28;20269;-75
2022/01/25 16:24:47;;;;;;;;;;;4.20;99.90;;;;;;5055996;28;19920;-76
2022/01/25 16:27:13;;;;;;;;;;;4.20;99.90;;;;;;5073710;28;20525;-77
2022/01/25 16:29:38;;;;;;;;;;;4.20;99.90;;;;;;5068585;28;19956;-75
2022/01/25 16:32:04;;;;;;;;;;;4.30;99.90;;;;;;5049379;28;20360;-75
2022/01/25 16:34:30;;;;;;;;;;;4.50;99.90;;;;;;5059154;28;20428;-75